Time;durP1;ratioP1;P1;durP2;ratioP2;P2;SDS_P1;SDS_P2;PMS_P1;PMS_P2;Temp;Humidity;BMP_temperature;BMP_pressure;BME280_temperature;BME280_humidity;BME280_pressure;Samples;Min_cycle;Max_cycle;Signal;HPM_P1;HPM_P2
2023/01/09 00:01:47;;;;;;;3.17;2.97;;;;;;;3.98;100.00;99484.81;5248886;28;20020;-81
2023/01/09 00:04:18;;;;;;;2.53;2.45;;;;;;;3.80;100.00;99455.69;5248054;28;20093;-81
2023/01/09 00:06:52;;;;;;;3.00;2.90;;;;;;;3.93;100.00;99498.09;5249056;28;20033;-81
2023/01/09 00:09:23;;;;;;;3.00;2.80;;;;;;;3.91;100.00;99484.97;5248458;28;20406;-83
2023/01/09 00:11:54;;;;;;;2.38;2.28;;;;;;;3.88;100.00;99485.47;5248180;28;20067;-83
2023/01/09 00:14:24;;;;;;;2.90;2.78;;;;;;;3.78;100.00;99469.28;5231453;28;20034;-83
2023/01/09 00:16:55;;;;;;;3.10;2.92;;;;;;;3.75;100.00;99461.78;5231545;28;20048;-82
2023/01/09 00:19:25;;;;;;;4.18;2.78;;;;;;;3.72;100.00;99470.28;5249382;28;20025;-83
2023/01/09 00:21:56;;;;;;;2.20;2.20;;;;;;;3.18;100.00;99379.28;5230970;28;20032;-82
2023/01/09 00:24:26;;;;;;;3.10;2.90;;;;;;;3.80;100.00;99485.88;5249464;28;20009;-82
2023/01/09 00:26:56;;;;;;;3.05;2.95;;;;;;;3.75;100.00;99485.81;5254953;28;20029;-82
2023/01/09 00:29:27;;;;;;;2.97;2.78;;;;;;;2.93;100.00;99366.34;5255212;28;20017;-82
2023/01/09 00:31:57;;;;;;;3.10;3.00;;;;;;;3.67;100.00;99492.38;5254544;28;20037;-82
2023/01/09 00:34:27;;;;;;;6.70;3.22;;;;;;;3.30;100.00;99457.38;5254020;28;20021;-82
2023/01/09 00:36:58;;;;;;;3.65;3.45;;;;;;;3.18;100.00;99437.97;5251753;28;20036;-82
2023/01/09 00:39:28;;;;;;;2.92;2.83;;;;;;;3.52;100.00;99508.16;5254792;28;20028;-82
2023/01/09 00:41:59;;;;;;;3.28;3.10;;;;;;;3.35;100.00;99480.66;5253350;28;20041;-82
2023/01/09 00:44:36;;;;;;;2.78;2.67;;;;;;;3.50;100.00;99506.75;5248777;28;20044;-82
2023/01/09 00:47:13;;;;;;;4.57;4.05;;;;;;;3.18;100.00;99453.97;5249888;28;20051;-82
2023/01/09 00:49:45;;;;;;;5.07;3.67;;;;;;;3.32;100.00;99476.63;5249058;28;20024;-83
2023/01/09 00:52:17;;;;;;;3.75;3.55;;;;;;;3.09;100.00;99449.28;5247860;28;20015;-82
2023/01/09 00:54:49;;;;;;;3.13;3.03;;;;;;;3.27;100.00;99479.19;5247939;28;20017;-82
2023/01/09 00:57:19;;;;;;;3.15;3.05;;;;;;;2.88;100.00;99416.16;5230324;28;20025;-82
2023/01/09 00:59:51;;;;;;;3.20;3.00;;;;;;;2.79;100.00;99434.38;5241502;28;20097;-82
2023/01/09 01:02:21;;;;;;;4.38;3.60;;;;;;;3.32;100.00;99505.97;5226497;28;20029;-82
2023/01/09 01:07:42;;;;;;;6.63;4.35;;;;;;;3.24;100.00;99495.69;5226679;28;20092;-82
2023/01/09 01:10:15;;;;;;;3.60;3.40;;;;;;;3.21;100.00;99492.69;5226607;28;20025;-82
2023/01/09 01:12:55;;;;;;;3.72;3.45;;;;;;;2.78;100.00;99463.94;5226147;28;20025;-81
2023/01/09 01:15:28;;;;;;;3.60;3.45;;;;;;;3.07;100.00;99500.19;5226404;28;20026;-82
2023/01/09 01:17:58;;;;;;;6.13;3.38;;;;;;;3.22;100.00;99512.97;5246944;28;20040;-82
2023/01/09 01:20:28;;;;;;;4.60;4.00;;;;;;;2.48;100.00;99410.91;5247278;28;20029;-82
2023/01/09 01:22:59;;;;;;;3.90;3.60;;;;;;;3.16;100.00;99513.97;5245969;23;20122;-66
2023/01/09 01:25:29;;;;;;;3.25;3.00;;;;;;;3.04;100.00;99498.00;5102759;29;20031;-65
2023/01/09 01:28:00;;;;;;;4.05;3.75;;;;;;;3.06;100.00;99509.25;5121319;29;20446;-65
2023/01/09 01:30:30;;;;;;;4.32;4.03;;;;;;;3.03;100.00;99513.19;5121219;29;20054;-63
2023/01/09 01:33:01;;;;;;;4.40;4.20;;;;;;;2.95;100.00;99513.56;5120526;29;20019;-65
2023/01/09 01:35:31;;;;;;;4.80;4.38;;;;;;;2.99;100.00;99516.59;5121268;29;20019;-64
2023/01/09 01:38:02;;;;;;;3.90;3.80;;;;;;;2.85;100.00;99510.75;5120981;29;20102;-65
2023/01/09 01:40:33;;;;;;;3.50;3.33;;;;;;;2.96;100.00;99520.53;5103823;28;20482;-65
2023/01/09 01:43:03;;;;;;;3.80;3.63;;;;;;;2.95;100.00;99510.91;5120188;29;20031;-64
2023/01/09 01:45:34;;;;;;;6.22;3.60;;;;;;;2.91;100.00;99515.09;5120742;29;20031;-68
2023/01/09 01:48:11;;;;;;;3.53;3.33;;;;;;;2.81;100.00;99490.94;5103358;28;20062;-65
2023/01/09 01:50:57;;;;;;;4.93;4.53;;;;;;;2.97;100.00;99516.00;5120537;29;20457;-65
2023/01/09 01:53:33;;;;;;;5.22;4.57;;;;;;;2.96;100.00;99519.72;5103318;28;20023;-64
2023/01/09 01:56:24;;;;;;;4.00;3.67;;;;;;;2.95;100.00;99512.78;5120950;29;20471;-64
2023/01/09 01:58:57;;;;;;;3.58;3.47;;;;;;;2.93;100.00;99522.88;5120920;29;20027;-65
2023/01/09 02:01:28;;;;;;;4.07;3.83;;;;;;;2.95;100.00;99523.44;5120620;29;20495;-64
2023/01/09 02:04:00;;;;;;;4.90;3.50;;;;;;;2.90;100.00;99513.47;5102365;28;20106;-65
2023/01/09 02:06:32;;;;;;;4.05;3.78;;;;;;;2.98;100.00;99520.28;5120988;29;20034;-65
2023/01/09 02:09:04;;;;;;;5.43;4.10;;;;;;;3.00;100.00;99513.69;5120667;29;20426;-65
2023/01/09 02:11:35;;;;;;;4.22;4.03;;;;;;;3.02;100.00;99505.44;5102085;29;20035;-65
2023/01/09 02:14:05;;;;;;;10.27;3.95;;;;;;;3.07;100.00;99512.72;5119547;29;20051;-65
2023/01/09 02:17:14;;;;;;;3.58;3.38;;;;;;;3.12;100.00;99513.63;5120531;29;20395;-66
2023/01/09 02:20:09;;;;;;;4.00;3.80;;;;;;;3.10;100.00;99521.06;5120486;29;20035;-63
2023/01/09 02:22:51;;;;;;;3.83;3.60;;;;;;;3.07;100.00;99526.88;5119837;29;20494;-64
2023/01/09 02:25:30;;;;;;;3.42;3.33;;;;;;;3.03;100.00;99520.41;5080642;29;20036;-65
2023/01/09 02:28:29;;;;;;;6.07;3.72;;;;;;;3.09;100.00;99515.97;5080685;29;20114;-65
2023/01/09 02:31:19;;;;;;;3.92;3.08;;;;;;;3.07;100.00;99510.06;5080905;29;20491;-63
2023/01/09 02:34:12;;;;;;;6.05;3.63;;;;;;;3.10;100.00;99502.38;5080075;29;20083;-65
2023/01/09 02:36:55;;;;;;;4.93;4.63;;;;;;;3.12;100.00;99507.50;5080628;29;20032;-65
2023/01/09 02:39:34;;;;;;;4.05;2.83;;;;;;;3.08;100.00;99512.50;5080758;29;20511;-65
2023/01/09 02:42:05;;;;;;;3.35;3.15;;;;;;;3.15;100.00;99518.50;5079957;29;20101;-65
2023/01/09 02:44:35;;;;;;;4.05;3.45;;;;;;;3.13;100.00;99517.09;5063146;29;20036;-65
2023/01/09 02:47:28;;;;;;;7.03;3.88;;;;;;;3.19;100.00;99511.59;5080831;29;20027;-64
2023/01/09 02:50:02;;;;;;;5.45;4.20;;;;;;;3.33;100.00;99509.44;5080361;29;20032;-65
2023/01/09 02:52:51;;;;;;;4.10;3.90;;;;;;;3.48;100.00;99506.19;5079585;29;20039;-64
2023/01/09 02:58:23;;;;;;;7.40;3.72;;;;;;;3.71;100.00;99516.72;5202162;28;20061;-66
2023/01/09 03:00:56;;;;;;;8.70;2.70;;;;;;;3.73;100.00;99503.94;5186166;28;20063;-67
2023/01/09 03:03:43;;;;;;;3.67;3.55;;;;;;;3.68;100.00;99503.88;5203276;28;20506;-66
2023/01/09 03:06:29;;;;;;;32.13;5.22;;;;;;;3.70;100.00;99499.09;5183685;28;20207;-66
2023/01/09 03:09:06;;;;;;;4.68;3.30;;;;;;;3.81;100.00;99490.16;5183711;28;20057;-67
2023/01/09 03:11:45;;;;;;;3.38;3.17;;;;;;;3.90;100.00;99499.38;5182850;28;20108;-67
2023/01/09 03:14:20;;;;;;;4.50;3.97;;;;;;;3.96;100.00;99493.06;5182983;28;20028;-66
2023/01/09 03:16:59;;;;;;;5.05;2.97;;;;;;;3.90;100.00;99477.22;5183554;28;20033;-67
2023/01/09 03:19:32;;;;;;;3.72;3.42;;;;;;;4.09;100.00;99497.22;5183643;28;20112;-67
2023/01/09 03:22:03;;;;;;;2.92;2.75;;;;;;;4.14;100.00;99483.13;5182325;28;20308;-67
2023/01/09 03:24:33;;;;;;;7.78;3.55;;;;;;;4.23;100.00;99492.34;5183129;28;20050;-67
2023/01/09 03:27:07;;;;;;;2.67;2.60;;;;;;;4.28;100.00;99492.41;5183280;28;20534;-66
2023/01/09 03:29:38;;;;;;;6.95;3.67;;;;;;;4.28;100.00;99495.91;5181950;28;20030;-66
2023/01/09 03:32:08;;;;;;;5.43;2.78;;;;;;;4.40;100.00;99501.09;5182838;28;20359;-68
2023/01/09 03:34:38;;;;;;;3.88;2.97;;;;;;;4.46;100.00;99493.97;5180965;28;20390;-66
2023/01/09 03:37:09;;;;;;;4.40;4.03;;;;;;;4.48;100.00;99495.31;5183239;28;20094;-66
2023/01/09 03:39:39;;;;;;;2.85;2.75;;;;;;;4.49;100.00;99496.94;5166628;28;20026;-66
2023/01/09 03:42:10;;;;;;;8.05;4.20;;;;;;;4.55;100.00;99489.78;5162562;28;20030;-66
2023/01/09 03:44:40;;;;;;;3.22;2.95;;;;;;;4.57;100.00;99490.34;5163067;28;20084;-66
2023/01/09 03:47:10;;;;;;;7.93;3.05;;;;;;;4.60;100.00;99492.53;5162515;28;20037;-66
2023/01/09 03:49:41;;;;;;;2.70;2.33;;;;;;;4.55;100.00;99481.78;5143435;28;20023;-66
2023/01/09 03:52:12;;;;;;;7.07;3.75;;;;;;;4.57;100.00;99483.16;5162068;28;20347;-65
2023/01/09 03:54:43;;;;;;;5.25;4.30;;;;;;;4.68;100.00;99505.44;5161201;28;20031;-67
2023/01/09 03:57:13;;;;;;;3.78;3.58;;;;;;;4.72;100.00;99496.66;5161056;28;20034;-65
2023/01/09 03:59:44;;;;;;;9.65;4.30;;;;;;;4.73;100.00;99514.31;5162523;28;20501;-65
2023/01/09 04:02:14;;;;;;;4.57;3.47;;;;;;;4.79;100.00;99509.03;5162152;28;20487;-66
2023/01/09 04:04:45;;;;;;;4.78;4.38;;;;;;;4.81;100.00;99496.22;5162545;28;20027;-66
2023/01/09 04:07:15;;;;;;;4.15;3.35;;;;;;;4.83;100.00;99494.13;5162341;28;20034;-69
2023/01/09 04:09:45;;;;;;;4.65;3.20;;;;;;;4.85;100.00;99490.13;5162264;28;20497;-67
2023/01/09 04:12:16;;;;;;;6.93;3.72;;;;;;;4.88;100.00;99488.81;5144544;28;20027;-67
2023/01/09 04:14:46;;;;;;;8.15;4.63;;;;;;;4.90;100.00;99484.03;5162870;28;20022;-66
2023/01/09 04:17:17;;;;;;;4.47;3.30;;;;;;;4.92;100.00;99473.84;5162629;28;20525;-65
2023/01/09 04:19:47;;;;;;;3.85;3.45;;;;;;;4.86;100.00;99461.50;5162503;28;20026;-66
2023/01/09 04:22:17;;;;;;;5.47;4.82;;;;;;;5.01;100.00;99489.22;5161662;28;20492;-69
2023/01/09 04:24:48;;;;;;;9.48;4.00;;;;;;;5.05;100.00;99487.66;5161932;28;20030;-66
2023/01/09 04:27:18;;;;;;;4.00;3.65;;;;;;;5.09;100.00;99482.59;5162846;28;20054;-69
2023/01/09 04:29:49;;;;;;;13.30;4.57;;;;;;;5.12;100.00;99487.44;5162189;28;20022;-66
2023/01/09 04:32:19;;;;;;;4.82;4.47;;;;;;;5.14;100.00;99485.31;5160741;28;20026;-66
2023/01/09 04:34:49;;;;;;;3.60;3.30;;;;;;;5.13;100.00;99475.69;5146140;28;20021;-64
2023/01/09 04:37:21;;;;;;;6.47;3.75;;;;;;;5.14;100.00;99468.47;5164917;28;20113;-66
2023/01/09 04:39:54;;;;;;;8.10;3.65;;;;;;;5.16;100.00;99469.81;5165579;28;20144;-64
2023/01/09 04:42:25;;;;;;;9.82;4.32;;;;;;;5.19;100.00;99463.97;5165338;28;20105;-68
2023/01/09 04:44:56;;;;;;;11.02;4.28;;;;;;;5.19;100.00;99461.28;5165548;28;20102;-65
2023/01/09 04:47:26;;;;;;;4.47;4.03;;;;;;;5.23;100.00;99457.03;5165741;28;20026;-67
2023/01/09 04:49:57;;;;;;;3.22;3.08;;;;;;;5.27;100.00;99465.34;5147896;28;20030;-68
2023/01/09 04:52:27;;;;;;;4.18;3.78;;;;;;;5.27;100.00;99452.78;5165047;28;20030;-66
2023/01/09 04:54:58;;;;;;;5.45;3.67;;;;;;;5.33;100.00;99449.09;5165590;28;20022;-67
2023/01/09 04:57:28;;;;;;;5.75;3.97;;;;;;;5.37;100.00;99452.88;5165643;28;20089;-67
2023/01/09 04:59:58;;;;;;;3.15;2.95;;;;;;;5.43;100.00;99449.16;5165558;28;20023;-65
2023/01/09 05:02:29;;;;;;;6.82;4.18;;;;;;;5.46;100.00;99444.38;5164917;28;20050;-66
2023/01/09 05:05:00;;;;;;;9.90;4.75;;;;;;;5.51;100.00;99450.53;5148124;28;20061;-67
2023/01/09 05:07:30;;;;;;;3.42;2.92;;;;;;;5.53;100.00;99440.38;5165415;28;20065;-66
2023/01/09 05:10:01;;;;;;;6.75;3.40;;;;;;;5.57;100.00;99452.19;5165435;28;20035;-67
2023/01/09 05:12:33;;;;;;;4.18;3.85;;;;;;;5.60;100.00;99458.91;5164499;28;20026;-65
2023/01/09 05:15:05;;;;;;;6.93;5.00;;;;;;;5.57;100.00;99460.22;5165365;28;20569;-66
2023/01/09 05:17:36;;;;;;;3.38;3.13;;;;;;;5.63;100.00;99461.88;5165279;28;20026;-66
2023/01/09 05:20:06;;;;;;;13.93;5.45;;;;;;;5.62;100.00;99454.91;5165370;28;20077;-66
2023/01/09 05:22:37;;;;;;;4.45;4.05;;;;;;;5.65;100.00;99461.63;5164592;28;20110;-66
2023/01/09 05:25:07;;;;;;;6.78;4.20;;;;;;;5.69;100.00;99463.53;5165440;28;20113;-69
2023/01/09 05:27:38;;;;;;;12.98;4.93;;;;;;;5.70;100.00;99467.81;5147732;28;20541;-67
2023/01/09 05:30:09;;;;;;;12.45;4.07;;;;;;;5.73;100.00;99464.63;5165077;28;20019;-65
2023/01/09 05:32:39;;;;;;;7.28;4.13;;;;;;;5.78;100.00;99461.16;5164469;28;20030;-67
2023/01/09 05:35:10;;;;;;;5.80;3.72;;;;;;;5.82;100.00;99461.44;5164766;28;20049;-67
2023/01/09 05:37:40;;;;;;;6.00;3.72;;;;;;;5.82;100.00;99443.50;5164778;28;20411;-67
2023/01/09 05:40:11;;;;;;;7.28;3.42;;;;;;;5.89;100.00;99462.06;5164753;28;20026;-65
2023/01/09 05:42:42;;;;;;;3.60;3.38;;;;;;;5.92;100.00;99481.13;5146673;28;20117;-64
2023/01/09 05:45:13;;;;;;;6.30;4.18;;;;;;;5.90;100.00;99450.28;5164349;28;20447;-68
2023/01/09 05:47:44;;;;;;;5.13;3.65;;;;;;;5.96;100.00;99468.81;5164509;28;20113;-66
2023/01/09 05:50:15;;;;;;;3.38;2.95;;;;;;;5.97;100.00;99481.16;5164756;28;20057;-67
2023/01/09 05:52:45;;;;;;;4.95;3.47;;;;;;;6.00;100.00;99480.63;5176042;28;20030;-67
2023/01/09 05:55:16;;;;;;;7.60;4.05;;;;;;;5.99;100.00;99473.66;5182274;28;20052;-65
2023/01/09 05:57:47;;;;;;;11.15;3.95;;;;;;;5.99;100.00;99472.84;5182845;28;20129;-67
2023/01/09 06:00:17;;;;;;;8.30;5.18;;;;;;;5.97;100.00;99473.09;5184346;28;20101;-67
2023/01/09 06:02:48;;;;;;;12.50;3.88;;;;;;;5.98;100.00;99480.09;5181847;28;20021;-64
2023/01/09 06:05:18;;;;;;;4.25;3.55;;;;;;;5.98;100.00;99488.13;5183042;28;20104;-67
2023/01/09 06:07:49;;;;;;;3.53;3.33;;;;;;;5.98;100.00;99477.41;5183895;28;20029;-67
2023/01/09 06:10:19;;;;;;;9.05;3.72;;;;;;;5.97;100.00;99486.50;5184555;28;20034;-68
2023/01/09 06:12:50;;;;;;;7.05;4.63;;;;;;;5.96;100.00;99484.91;5183339;28;20345;-67
2023/01/09 06:15:21;;;;;;;6.07;3.35;;;;;;;5.84;100.00;99478.06;5184061;28;20032;-66
2023/01/09 06:17:51;;;;;;;4.45;3.95;;;;;;;5.91;100.00;99500.13;5163298;28;20105;-66
2023/01/09 06:20:21;;;;;;;5.93;3.78;;;;;;;5.88;100.00;99495.25;5182312;28;20022;-66
2023/01/09 06:22:52;;;;;;;13.90;4.57;;;;;;;5.87;100.00;99497.13;5180887;28;20065;-66
2023/01/09 06:25:22;;;;;;;6.05;4.43;;;;;;;5.88;100.00;99501.41;5181210;28;20111;-68
2023/01/09 06:27:52;;;;;;;9.40;3.63;;;;;;;5.72;100.00;99478.28;5182042;28;20425;-67
2023/01/09 06:30:23;;;;;;;6.32;4.50;;;;;;;5.84;100.00;99511.03;5182879;28;20427;-67
2023/01/09 06:32:53;;;;;;;4.40;4.05;;;;;;;5.82;100.00;99501.63;5182326;28;20045;-65
2023/01/09 06:35:24;;;;;;;5.68;4.70;;;;;;;5.81;100.00;99498.16;5180404;28;20018;-67
2023/01/09 06:37:54;;;;;;;3.67;3.40;;;;;;;5.81;100.00;99503.50;5181389;28;20088;-67
2023/01/09 06:40:25;;;;;;;3.80;3.53;;;;;;;5.81;100.00;99502.69;5181945;28;20018;-66
2023/01/09 06:42:55;;;;;;;10.10;3.80;;;;;;;5.86;100.00;99516.13;5181977;28;20083;-68
2023/01/09 06:45:26;;;;;;;4.75;4.03;;;;;;;5.87;100.00;99517.75;5163758;28;20083;-66
2023/01/09 06:47:56;;;;;;;7.55;4.97;;;;;;;5.86;100.00;99530.34;5171435;28;20749;-65
2023/01/09 06:50:26;;;;;;;3.35;3.15;;;;;;;5.85;100.00;99515.31;5180810;28;20029;-65
2023/01/09 06:52:57;;;;;;;5.82;3.83;;;;;;;5.84;100.00;99516.38;5183105;28;20041;-66
2023/01/09 06:55:27;;;;;;;4.72;4.35;;;;;;;5.85;100.00;99535.94;5183595;28;20079;-66
2023/01/09 06:57:58;;;;;;;6.05;4.47;;;;;;;5.82;100.00;99531.91;5165536;28;20538;-66
2023/01/09 07:00:30;;;;;;;6.20;5.07;;;;;;;5.85;100.00;99546.66;5183247;28;20433;-67
2023/01/09 07:03:00;;;;;;;6.45;4.22;;;;;;;5.83;100.00;99557.63;5178220;28;20057;-66
2023/01/09 07:05:36;;;;;;;10.35;4.18;;;;;;;5.89;100.00;99564.69;5182547;28;20165;-66
2023/01/09 07:08:07;;;;;;;7.15;3.63;;;;;;;5.91;100.00;99561.75;5183370;28;20069;-66
2023/01/09 07:10:38;;;;;;;4.38;3.97;;;;;;;5.91;100.00;99559.06;5183669;28;20036;-65
2023/01/09 07:13:08;;;;;;;5.93;4.40;;;;;;;5.84;100.00;99569.97;5182814;28;20022;-66
2023/01/09 07:15:39;;;;;;;11.75;5.18;;;;;;;5.82;100.00;99565.94;5165626;28;20025;-66
2023/01/09 07:18:09;;;;;;;6.88;4.18;;;;;;;5.81;100.00;99570.47;5175221;28;20037;-65
2023/01/09 07:20:40;;;;;;;8.00;5.28;;;;;;;5.81;100.00;99575.84;5166352;28;20537;-66
2023/01/09 07:23:14;;;;;;;6.00;4.60;;;;;;;5.80;100.00;99579.56;5160943;28;20061;-65
2023/01/09 07:25:45;;;;;;;3.13;2.95;;;;;;;5.82;100.00;99590.84;5162471;28;20478;-65
2023/01/09 07:28:15;;;;;;;4.38;4.00;;;;;;;5.81;100.00;99581.19;5160417;28;20027;-66
2023/01/09 07:30:46;;;;;;;6.05;3.70;;;;;;;5.83;100.00;99581.75;5181748;28;20025;-66
2023/01/09 07:33:16;;;;;;;8.07;4.22;;;;;;;5.77;100.00;99572.84;5182301;28;20029;-67
2023/01/09 07:35:46;;;;;;;3.63;3.42;;;;;;;5.89;100.00;99601.38;5181970;28;20022;-65
2023/01/09 07:38:17;;;;;;;4.03;3.47;;;;;;;5.90;100.00;99597.63;5182747;28;20052;-67
2023/01/09 07:40:47;;;;;;;5.03;3.95;;;;;;;5.93;100.00;99605.97;5183244;28;20029;-66
2023/01/09 07:43:17;;;;;;;6.75;4.28;;;;;;;5.95;100.00;99606.53;5164888;28;20026;-66
2023/01/09 07:45:48;;;;;;;3.72;3.38;;;;;;;5.94;100.00;99602.25;5174771;28;20136;-64
2023/01/09 07:48:18;;;;;;;4.78;3.17;;;;;;;5.91;100.00;99618.81;5171023;28;20030;-65
2023/01/09 07:50:49;;;;;;;8.15;4.32;;;;;;;5.83;100.00;99613.91;5180727;28;20120;-65
2023/01/09 07:53:19;;;;;;;10.50;4.18;;;;;;;5.77;100.00;99615.72;5178347;28;20029;-66
2023/01/09 07:55:49;;;;;;;8.82;3.22;;;;;;;5.77;100.00;99631.78;5178599;28;20505;-64
2023/01/09 07:58:20;;;;;;;4.20;3.60;;;;;;;5.83;100.00;99629.97;5172856;28;20038;-66
2023/01/09 08:00:50;;;;;;;3.28;3.17;;;;;;;5.88;100.00;99638.06;5163148;28;20027;-64
2023/01/09 08:03:21;;;;;;;3.72;3.47;;;;;;;5.85;100.00;99627.03;5162353;28;20045;-66
2023/01/09 08:05:51;;;;;;;4.07;3.70;;;;;;;5.90;100.00;99646.69;5162821;28;20019;-65
2023/01/09 08:08:22;;;;;;;11.57;4.53;;;;;;;5.89;100.00;99642.38;5170719;28;20113;-65
2023/01/09 08:10:52;;;;;;;6.18;2.78;;;;;;;5.89;100.00;99642.38;5185479;28;20022;-66
2023/01/09 08:13:23;;;;;;;3.85;2.70;;;;;;;5.93;100.00;99651.53;5183558;28;20100;-67
2023/01/09 08:15:53;;;;;;;3.22;2.97;;;;;;;5.73;100.00;99619.19;5165276;28;20030;-66
2023/01/09 08:18:23;;;;;;;4.45;2.85;;;;;;;6.01;100.00;99655.63;5180924;28;20021;-66
2023/01/09 08:20:57;;;;;;;2.95;2.78;;;;;;;5.94;100.00;99650.47;5186783;28;20026;-66
2023/01/09 08:23:27;;;;;;;2.80;2.67;;;;;;;6.07;100.00;99673.34;5178994;28;20019;-66
2023/01/09 08:25:57;;;;;;;5.00;3.40;;;;;;;6.07;100.00;99673.34;5165908;28;20085;-66
2023/01/09 08:28:28;;;;;;;2.50;2.40;;;;;;;6.07;100.00;99678.69;5168781;28;20089;-66
2023/01/09 08:30:58;;;;;;;5.65;2.55;;;;;;;6.06;100.00;99682.47;5167163;28;20081;-64
2023/01/09 08:33:29;;;;;;;2.40;2.28;;;;;;;6.02;100.00;99684.84;5168628;28;20058;-66
2023/01/09 08:35:59;;;;;;;9.80;3.85;;;;;;;5.95;100.00;99703.00;5169703;28;20015;-65
2023/01/09 08:38:29;;;;;;;3.80;3.47;;;;;;;5.90;100.00;99683.38;5175105;28;20431;-65
2023/01/09 08:47:04;;;;;;;10.85;4.13;;;;;;;5.90;100.00;99707.50;5183373;28;20041;-64
2023/01/09 08:49:30;;;;;;;;;;;;;;;6.08;100.00;99712.47;5184538;28;20113;-66
2023/01/09 08:52:00;;;;;;;5.32;3.90;;;;;;;6.09;100.00;99711.41;5185115;28;19996;-66
2023/01/09 08:54:31;;;;;;;5.18;3.80;;;;;;;6.20;100.00;99709.63;5168333;28;20010;-65
2023/01/09 08:57:01;;;;;;;5.35;3.90;;;;;;;6.24;100.00;99722.28;5186362;28;20100;-69
2023/01/09 08:59:32;;;;;;;4.05;3.85;;;;;;;6.26;100.00;99722.03;5186644;28;20470;-66
2023/01/09 09:02:02;;;;;;;4.30;3.88;;;;;;;6.27;100.00;99732.50;5185920;28;20072;-67
2023/01/09 09:04:32;;;;;;;4.05;3.70;;;;;;;6.28;100.00;99730.63;5153935;22;20082;-65
2023/01/09 09:07:03;;;;;;;5.68;4.00;;;;;;;6.26;100.00;99738.13;5121133;29;20387;-64
2023/01/09 09:09:33;;;;;;;4.43;4.13;;;;;;;6.30;100.00;99740.03;5121784;29;20073;-64
2023/01/09 09:12:04;;;;;;;4.13;3.83;;;;;;;6.27;100.00;99748.59;5095655;29;20026;-65
2023/01/09 09:17:23;;;;;;;8.95;3.95;;;;;;;6.34;100.00;99780.56;5091849;29;20544;-67
2023/01/09 09:19:54;;;;;;;4.95;4.55;;;;;;;6.38;100.00;99765.56;5092775;29;20099;-65
2023/01/09 09:22:24;;;;;;;4.57;4.00;;;;;;;6.36;100.00;99781.88;5144553;28;20460;-65
2023/01/09 09:24:55;;;;;;;6.50;4.13;;;;;;;6.40;100.00;99784.88;5111546;28;20462;-63
2023/01/09 09:27:25;;;;;;;6.00;4.25;;;;;;;6.43;100.00;99795.91;5086701;28;20052;-65
2023/01/09 09:29:56;;;;;;;4.22;3.90;;;;;;;6.48;100.00;99797.81;5084233;29;20024;-64
2023/01/09 09:32:26;;;;;;;2.95;2.75;;;;;;;6.49;100.00;99801.31;5095006;29;20111;-64
2023/01/09 09:34:57;;;;;;;4.20;4.00;;;;;;;6.54;100.00;99812.91;5095762;28;20435;-66
2023/01/09 09:37:27;;;;;;;4.05;3.78;;;;;;;6.57;100.00;99816.97;5071368;28;20107;-65
2023/01/09 09:39:58;;;;;;;4.30;4.00;;;;;;;6.58;100.00;99813.22;5085964;29;20032;-65
2023/01/09 09:45:51;;;;;;;6.75;3.72;;;;;;;6.59;100.00;99821.00;5066931;29;20083;-64
2023/01/09 09:48:42;;;;;;;4.78;4.15;;;;;;;6.58;100.00;99829.31;5080747;28;20036;-64
2023/01/09 09:51:27;;;;;;;4.32;2.97;;;;;;;6.59;100.00;99839.78;5098222;29;20391;-65
2023/01/09 09:53:58;;;;;;;3.90;3.53;;;;;;;6.59;100.00;99844.34;5099482;29;20432;-65
2023/01/09 09:56:35;;;;;;;3.90;3.70;;;;;;;6.61;100.00;99851.06;5102147;28;20058;-65
2023/01/09 09:59:13;;;;;;;4.63;4.13;;;;;;;6.61;100.00;99853.75;5091561;29;20039;-65
2023/01/09 10:02:08;;;;;;;4.32;4.03;;;;;;;6.49;100.00;99863.81;5095210;28;20024;-64
2023/01/09 10:04:47;;;;;;;5.03;4.00;;;;;;;6.35;100.00;99868.75;5095129;29;20035;-63
2023/01/09 10:07:27;;;;;;;4.77;4.37;;;;;;;6.22;100.00;99863.81;5086357;29;20388;-65
2023/01/09 10:10:04;;;;;;;;;;;;;;;6.21;100.00;99882.81;5084308;29;20090;-66
2023/01/09 10:12:44;;;;;;;4.55;4.32;;;;;;;6.26;100.00;99888.25;5085335;29;19911;-65
2023/01/09 10:15:18;;;;;;;5.40;4.72;;;;;;;6.27;100.00;99888.00;5063823;28;20031;-65
2023/01/09 10:18:03;;;;;;;5.13;3.33;;;;;;;6.36;100.00;99901.75;5099025;29;20444;-66
2023/01/09 10:20:49;;;;;;;4.15;3.95;;;;;;;6.39;100.00;99895.88;5080843;29;20031;-64
2023/01/09 10:23:36;;;;;;;4.88;4.05;;;;;;;6.46;100.00;99896.50;5086624;29;20078;-65
2023/01/09 10:26:21;;;;;;;5.30;4.50;;;;;;;6.44;100.00;99888.72;5081194;29;20512;-65
2023/01/09 10:29:10;;;;;;;4.60;4.18;;;;;;;6.58;100.00;99904.41;5144910;28;20042;-65
2023/01/09 10:31:53;;;;;;;4.70;4.30;;;;;;;6.64;100.00;99898.81;5095947;29;20031;-64
2023/01/09 10:34:43;;;;;;;8.40;4.32;;;;;;;6.73;100.00;99910.72;5081903;29;20024;-64
2023/01/09 10:37:52;;;;;;;4.43;4.13;;;;;;;6.75;100.00;99913.97;5083902;28;20128;-63
2023/01/09 10:40:31;;;;;;;5.75;3.67;;;;;;;6.82;100.00;99915.63;5060634;29;20071;-64
2023/01/09 10:43:08;;;;;;;4.40;4.07;;;;;;;6.87;100.00;99908.44;5112329;28;20030;-65
2023/01/09 10:45:49;;;;;;;3.67;3.47;;;;;;;6.94;100.00;99924.31;5086169;29;20166;-64
2023/01/09 10:48:30;;;;;;;5.15;4.70;;;;;;;7.03;100.00;99923.59;5083105;29;20093;-64
2023/01/09 10:51:10;;;;;;;3.20;3.00;;;;;;;7.01;100.00;99925.75;5088426;29;20094;-63
2023/01/09 10:53:44;;;;;;;5.20;4.78;;;;;;;6.98;100.00;99925.44;5101147;29;20396;-64
2023/01/09 10:56:20;;;;;;;4.15;4.03;;;;;;;6.99;100.00;99938.59;5089288;28;20097;-63
2023/01/09 10:58:52;;;;;;;6.35;4.15;;;;;;;7.01;100.00;99936.47;5097136;29;20087;-64
2023/01/09 11:01:37;;;;;;;7.75;5.15;;;;;;;7.01;100.00;99938.34;5099603;29;20106;-64
2023/01/09 11:04:39;;;;;;;5.72;4.03;;;;;;;6.99;100.00;99943.16;5090694;29;20024;-63
2023/01/09 11:07:20;;;;;;;3.60;3.40;;;;;;;6.91;100.00;99949.00;5085626;28;20102;-64
2023/01/09 11:10:01;;;;;;;3.78;3.55;;;;;;;6.90;100.00;99944.72;5099958;29;20024;-63
2023/01/09 11:12:33;;;;;;;4.53;4.10;;;;;;;7.04;100.00;99957.44;5100648;29;20027;-64
2023/01/09 11:15:19;;;;;;;7.20;4.20;;;;;;;7.08;100.00;99963.13;5088498;29;20454;-64
2023/01/09 11:17:50;;;;;;;5.05;4.57;;;;;;;7.14;100.00;99959.41;5081390;29;20062;-64
2023/01/09 11:20:21;;;;;;;7.25;4.13;;;;;;;7.16;100.00;99951.09;5063510;29;20044;-63
2023/01/09 11:22:56;;;;;;;4.18;3.88;;;;;;;7.15;100.00;99952.97;5099176;29;20032;-66
2023/01/09 11:25:27;;;;;;;5.35;4.85;;;;;;;7.15;100.00;99961.03;5100058;29;20031;-67
2023/01/09 11:28:01;;;;;;;8.80;5.28;;;;;;;7.12;100.00;99964.22;5093800;29;20054;-65
2023/01/09 11:30:35;;;;;;;4.15;3.95;;;;;;;7.15;100.00;99960.22;5096945;29;20702;-65
2023/01/09 11:33:17;;;;;;;4.57;3.17;;;;;;;7.27;100.00;99968.91;5078940;28;20032;-65
2023/01/09 11:35:58;;;;;;;4.40;4.20;;;;;;;7.37;100.00;99977.88;5080103;28;20016;-65
2023/01/09 11:38:31;;;;;;;8.57;4.15;;;;;;;7.42;100.00;99975.22;5081119;28;20031;-63
2023/01/09 11:41:03;;;;;;;4.75;4.35;;;;;;;7.42;100.00;99983.28;5079675;29;20035;-64
2023/01/09 11:43:39;;;;;;;4.13;3.83;;;;;;;7.52;100.00;99984.41;5089205;29;20173;-63
2023/01/09 11:46:33;;;;;;;4.35;4.10;;;;;;;7.58;100.00;99972.66;5098651;29;20491;-64
2023/01/09 11:49:21;;;;;;;9.05;4.97;;;;;;;7.73;100.00;99978.13;5100112;29;20031;-64
2023/01/09 11:52:12;;;;;;;3.67;3.38;;;;;;;7.88;100.00;99978.22;5083762;29;20043;-64
2023/01/09 11:54:59;;;;;;;5.00;4.53;;;;;;;7.87;100.00;99976.59;5087281;28;20024;-65
2023/01/09 11:57:31;;;;;;;4.60;4.20;;;;;;;7.88;100.00;99990.84;5083014;29;20032;-65
2023/01/09 12:00:18;;;;;;;27.98;4.47;;;;;;;7.88;100.00;99980.09;5097612;29;20070;-65
2023/01/09 12:03:17;;;;;;;4.38;4.03;;;;;;;7.80;100.00;99992.13;5102069;29;20042;-64
2023/01/09 12:06:21;;;;;;;8.27;3.92;;;;;;;7.80;100.00;99986.75;5083701;28;20032;-65
2023/01/09 12:09:01;;;;;;;5.95;5.35;;;;;;;7.69;100.00;99975.16;5103037;28;20023;-66
2023/01/09 12:12:18;;;;;;;4.50;3.93;;;;;;;7.63;100.00;99976.19;5127949;28;20038;-64
2023/01/09 12:15:06;;;;;;;7.95;5.45;;;;;;;7.70;100.00;99998.28;5099232;29;20279;-64
2023/01/09 12:17:55;;;;;;;4.10;3.80;;;;;;;7.66;100.00;100002.53;5090712;29;20020;-64
2023/01/09 12:21:07;;;;;;;5.72;4.43;;;;;;;7.66;100.00;99996.34;5083272;29;20111;-63
2023/01/09 12:24:08;;;;;;;4.93;4.63;;;;;;;7.63;100.00;100000.38;5085879;28;20070;-64
2023/01/09 12:26:57;;;;;;;4.72;4.45;;;;;;;7.61;100.00;100001.69;5094216;28;20051;-65